Time;durP1;ratioP1;P1;durP2;ratioP2;P2;SDS_P1;SDS_P2;PMS_P1;PMS_P2;Temp;Humidity;BMP_temperature;BMP_pressure;BME280_temperature;BME280_humidity;BME280_pressure;Samples;Min_cycle;Max_cycle;Signal;HPM_P1;HPM_P2
2021/07/24 00:00:23;;;;;;;2.90;2.40;;;21.80;66.00;;;;;;5098313;28;20039;-71
2021/07/24 00:02:49;;;;;;;4.72;2.30;;;21.80;66.00;;;;;;5097924;28;20047;-72
2021/07/24 00:05:15;;;;;;;2.50;2.30;;;21.80;66.00;;;;;;5097641;28;20036;-73
2021/07/24 00:07:41;;;;;;;2.80;2.10;;;21.80;66.00;;;;;;5097711;28;20068;-72
2021/07/24 00:10:07;;;;;;;2.67;2.42;;;21.80;66.00;;;;;;5097581;28;20048;-72
2021/07/24 00:12:33;;;;;;;3.15;2.15;;;21.80;66.00;;;;;;5097694;28;20474;-72
2021/07/24 00:14:59;;;;;;;3.17;2.42;;;21.80;66.00;;;;;;5098081;28;20047;-72
2021/07/24 00:17:25;;;;;;;3.00;2.70;;;21.80;66.10;;;;;;5097836;28;20453;-72
2021/07/24 00:19:51;;;;;;;3.25;2.15;;;21.80;66.10;;;;;;5097781;28;20074;-72
2021/07/24 00:22:17;;;;;;;3.53;2.80;;;21.80;66.00;;;;;;5097625;28;20074;-72
2021/07/24 00:24:44;;;;;;;2.55;2.10;;;21.80;66.00;;;;;;5097239;28;20035;-72
2021/07/24 00:27:10;;;;;;;3.25;2.70;;;21.70;66.00;;;;;;5097174;28;20036;-72
2021/07/24 00:29:36;;;;;;;2.78;2.33;;;21.80;66.10;;;;;;5097627;28;20054;-72
2021/07/24 00:32:05;;;;;;;3.10;2.40;;;21.80;66.00;;;;;;5097577;28;20040;-72
2021/07/24 00:34:32;;;;;;;3.15;2.35;;;21.70;66.00;;;;;;5097462;28;20039;-72
2021/07/24 00:36:58;;;;;;;3.38;2.20;;;21.70;66.00;;;;;;5097394;28;20079;-72
2021/07/24 00:39:25;;;;;;;3.13;2.50;;;21.70;66.00;;;;;;5097649;28;20340;-72
2021/07/24 00:42:18;;;;;;;3.28;2.30;;;21.70;66.00;;;;;;5096542;28;20130;-72
2021/07/24 00:44:48;;;;;;;3.63;2.60;;;21.70;66.00;;;;;;5097064;28;20052;-72
2021/07/24 00:47:19;;;;;;;2.55;2.30;;;21.70;66.00;;;;;;5096947;28;20117;-72
2021/07/24 00:49:46;;;;;;;2.30;1.95;;;21.70;66.60;;;;;;5096936;28;20097;-72
2021/07/24 00:52:13;;;;;;;3.10;2.22;;;21.70;66.00;;;;;;5097076;28;20139;-72
2021/07/24 00:54:39;;;;;;;3.38;2.05;;;21.70;66.00;;;;;;5096544;28;20032;-72
2021/07/24 00:57:06;;;;;;;3.50;2.55;;;21.70;65.90;;;;;;5097065;28;20048;-72
2021/07/24 00:59:34;;;;;;;2.72;2.38;;;21.70;66.00;;;;;;5096675;28;20112;-72
2021/07/24 01:02:03;;;;;;;3.95;2.65;;;21.70;66.00;;;;;;5096465;28;20040;-72
2021/07/24 01:04:29;;;;;;;3.03;2.40;;;21.70;66.00;;;;;;5097021;28;20067;-72
2021/07/24 01:06:56;;;;;;;2.92;2.35;;;21.70;66.00;;;;;;5097122;28;20040;-72
2021/07/24 01:09:24;;;;;;;3.90;2.85;;;21.70;65.90;;;;;;5096771;28;20044;-72
2021/07/24 01:11:50;;;;;;;3.25;2.45;;;21.70;66.00;;;;;;5096386;28;20040;-72
2021/07/24 01:14:17;;;;;;;3.35;2.40;;;21.70;66.00;;;;;;5097073;28;20044;-72
2021/07/24 01:16:45;;;;;;;2.95;2.40;;;21.70;65.90;;;;;;5096368;28;20354;-73
2021/07/24 01:19:11;;;;;;;3.85;2.65;;;21.70;65.90;;;;;;5096554;28;20110;-72
2021/07/24 01:21:37;;;;;;;3.35;2.50;;;21.70;65.90;;;;;;5096190;28;20036;-72
2021/07/24 01:24:03;;;;;;;3.72;2.45;;;21.60;65.80;;;;;;5096019;28;20043;-72
2021/07/24 01:26:35;;;;;;;3.20;2.50;;;21.70;65.90;;;;;;5096116;28;20123;-72
2021/07/24 01:29:05;;;;;;;3.03;2.60;;;21.60;65.90;;;;;;5096078;28;20415;-72
2021/07/24 01:31:30;;;;;;;3.70;2.80;;;21.60;65.90;;;;;;5095868;28;20055;-72
2021/07/24 01:33:56;;;;;;;4.07;2.78;;;21.60;65.90;;;;;;5096711;28;20051;-72
2021/07/24 01:36:22;;;;;;;3.20;2.70;;;21.60;65.90;;;;;;5096203;28;20048;-72
2021/07/24 01:38:48;;;;;;;3.13;2.50;;;21.60;65.90;;;;;;5095994;28;20416;-72
2021/07/24 01:41:15;;;;;;;2.75;2.30;;;21.70;65.90;;;;;;5096191;28;20044;-72
2021/07/24 01:43:41;;;;;;;3.33;2.38;;;21.60;65.80;;;;;;5095578;28;20040;-72
2021/07/24 01:46:07;;;;;;;3.47;2.75;;;21.70;65.90;;;;;;5095779;28;20095;-72
2021/07/24 01:48:52;;;;;;;3.25;2.42;;;21.60;65.90;;;;;;5095832;28;20043;-72
2021/07/24 01:54:24;;;;;;;4.00;2.63;;;21.60;65.90;;;;;;5095567;28;20054;-72
2021/07/24 01:56:53;;;;;;;2.92;2.20;;;21.60;65.90;;;;;;5095743;28;20042;-72
2021/07/24 01:59:21;;;;;;;3.47;2.55;;;21.60;65.80;;;;;;5096526;28;20051;-72
2021/07/24 02:01:49;;;;;;;3.22;2.55;;;21.60;65.90;;;;;;5095584;28;20079;-72
2021/07/24 02:04:19;;;;;;;3.05;2.53;;;21.60;65.90;;;;;;5095702;28;20058;-72
2021/07/24 02:06:45;;;;;;;3.78;2.78;;;21.60;65.90;;;;;;5095484;28;20131;-72
2021/07/24 02:09:11;;;;;;;3.63;2.38;;;21.60;65.90;;;;;;5095181;28;20131;-72
2021/07/24 02:11:38;;;;;;;3.35;2.67;;;21.60;65.90;;;;;;5095481;28;20046;-72
2021/07/24 02:14:05;;;;;;;3.58;2.92;;;21.60;65.90;;;;;;5095609;28;20071;-72
2021/07/24 02:16:31;;;;;;;4.97;3.40;;;21.60;65.90;;;;;;5095347;28;20064;-72
2021/07/24 02:18:57;;;;;;;4.10;3.08;;;21.60;65.90;;;;;;5095378;28;20418;-72
2021/07/24 02:21:23;;;;;;;3.40;2.63;;;21.60;65.80;;;;;;5095179;28;20047;-73
2021/07/24 02:23:48;;;;;;;3.70;2.72;;;21.50;65.80;;;;;;5095678;28;20044;-72
2021/07/24 02:26:14;;;;;;;3.42;2.88;;;21.50;65.80;;;;;;5095965;28;20044;-72
2021/07/24 02:28:41;;;;;;;3.47;2.55;;;21.50;66.40;;;;;;5095221;28;20039;-72
2021/07/24 02:31:07;;;;;;;3.50;2.75;;;21.50;65.80;;;;;;5094745;28;20123;-72
2021/07/24 02:33:33;;;;;;;3.45;2.85;;;21.50;65.70;;;;;;5095036;28;20048;-72
2021/07/24 02:35:59;;;;;;;5.30;3.00;;;21.60;66.40;;;;;;5095149;28;20070;-72
2021/07/24 02:38:25;;;;;;;3.50;2.65;;;21.50;65.80;;;;;;5095071;28;20105;-72
2021/07/24 02:40:50;;;;;;;4.22;3.10;;;21.60;65.90;;;;;;5094907;28;20517;-72
2021/07/24 02:43:16;;;;;;;3.60;2.97;;;21.50;65.80;;;;;;5095061;28;20054;-72
2021/07/24 02:45:42;;;;;;;3.47;3.00;;;21.50;65.80;;;;;;5094741;28;20044;-72
2021/07/24 02:48:08;;;;;;;3.72;2.85;;;21.50;65.80;;;;;;5094971;28;20130;-72
2021/07/24 02:50:34;;;;;;;5.93;2.53;;;21.50;65.70;;;;;;5094743;28;20075;-73
2021/07/24 02:53:01;;;;;;;3.20;2.55;;;21.50;65.80;;;;;;5095043;28;20052;-72
2021/07/24 02:55:26;;;;;;;3.15;2.85;;;21.50;65.70;;;;;;5094981;28;20336;-72
2021/07/24 02:57:52;;;;;;;3.95;2.90;;;21.50;65.80;;;;;;5094718;28;20447;-72
2021/07/24 03:00:18;;;;;;;3.30;2.80;;;21.50;65.80;;;;;;5095224;28;20055;-72
2021/07/24 03:02:44;;;;;;;4.00;3.03;;;21.50;65.80;;;;;;5094914;28;20047;-72
2021/07/24 03:05:10;;;;;;;3.33;2.70;;;21.50;65.80;;;;;;5096424;28;20439;-72
2021/07/24 03:07:36;;;;;;;3.30;2.40;;;21.50;65.80;;;;;;5099488;28;20453;-72
2021/07/24 03:10:02;;;;;;;3.25;2.83;;;21.50;65.70;;;;;;5098765;28;20044;-72
2021/07/24 03:12:28;;;;;;;3.08;2.67;;;21.50;65.80;;;;;;5098677;28;20109;-72
2021/07/24 03:14:54;;;;;;;3.78;2.50;;;21.50;65.80;;;;;;5098629;28;20048;-72
2021/07/24 03:17:20;;;;;;;4.78;3.47;;;21.50;65.80;;;;;;5098711;28;20108;-72
2021/07/24 03:19:46;;;;;;;3.30;2.58;;;21.50;65.80;;;;;;5099249;28;20083;-72
2021/07/24 03:22:12;;;;;;;4.15;3.40;;;21.50;65.80;;;;;;5098919;28;20060;-72
2021/07/24 03:24:38;;;;;;;3.22;2.60;;;21.40;65.70;;;;;;5098241;28;20064;-72
2021/07/24 03:27:04;;;;;;;3.35;2.80;;;21.50;65.80;;;;;;5099177;28;20454;-72
2021/07/24 03:29:30;;;;;;;4.47;3.10;;;21.50;65.80;;;;;;5098671;28;20097;-72
2021/07/24 03:31:56;;;;;;;4.15;3.47;;;21.40;65.70;;;;;;5098544;28;20040;-72
2021/07/24 03:34:22;;;;;;;3.78;3.10;;;21.40;65.70;;;;;;5098035;28;20051;-72
2021/07/24 03:36:48;;;;;;;4.20;3.55;;;21.40;65.70;;;;;;5098072;28;20439;-72
2021/07/24 03:39:14;;;;;;;3.47;3.10;;;21.40;65.80;;;;;;5098496;28;20048;-72
2021/07/24 03:41:39;;;;;;;3.78;3.42;;;21.40;65.70;;;;;;5098649;28;20507;-72
2021/07/24 03:44:06;;;;;;;3.67;3.10;;;21.40;65.70;;;;;;5097975;28;20316;-72
2021/07/24 03:46:32;;;;;;;4.07;3.17;;;21.40;65.70;;;;;;5097992;28;20382;-72
2021/07/24 03:48:58;;;;;;;3.83;3.15;;;21.40;65.70;;;;;;5098671;28;20104;-72
2021/07/24 03:51:24;;;;;;;4.47;3.53;;;21.40;65.70;;;;;;5098038;28;20070;-72
2021/07/24 03:53:50;;;;;;;4.85;3.78;;;21.40;65.70;;;;;;5097986;28;20040;-72
2021/07/24 03:56:21;;;;;;;5.43;3.85;;;21.40;65.80;;;;;;5097982;28;20055;-72
2021/07/24 03:58:49;;;;;;;3.90;3.10;;;21.40;65.70;;;;;;5098056;28;20062;-72
2021/07/24 04:01:15;;;;;;;3.50;3.03;;;21.40;65.80;;;;;;5097956;28;20039;-72
2021/07/24 04:03:41;;;;;;;5.00;3.47;;;21.40;65.80;;;;;;5097762;28;20040;-73
2021/07/24 04:06:09;;;;;;;3.58;3.20;;;21.40;65.80;;;;;;5097728;28;20044;-72
2021/07/24 04:08:35;;;;;;;3.80;3.40;;;21.40;65.80;;;;;;5098178;28;20105;-72
2021/07/24 04:11:04;;;;;;;3.75;3.28;;;21.40;65.80;;;;;;5098046;28;20047;-72
2021/07/24 04:13:32;;;;;;;4.32;3.60;;;21.40;65.80;;;;;;5097712;28;20405;-72
2021/07/24 04:15:58;;;;;;;5.88;3.42;;;21.40;65.80;;;;;;5097221;28;20117;-72
2021/07/24 04:18:25;;;;;;;5.32;2.92;;;21.40;65.80;;;;;;5097506;28;20040;-72
2021/07/24 04:20:54;;;;;;;5.32;3.63;;;21.40;65.80;;;;;;5097544;28;20052;-72
2021/07/24 04:23:20;;;;;;;4.40;3.60;;;21.40;65.80;;;;;;5097238;28;20346;-72
2021/07/24 04:25:46;;;;;;;4.28;3.63;;;21.40;65.80;;;;;;5097486;28;20044;-72
2021/07/24 04:28:12;;;;;;;5.03;3.90;;;21.40;65.80;;;;;;5097555;28;20124;-72
2021/07/24 04:30:39;;;;;;;4.50;3.67;;;21.40;65.80;;;;;;5097229;28;20145;-72
2021/07/24 04:33:04;;;;;;;4.75;3.20;;;21.30;65.70;;;;;;5097128;28;20131;-72
2021/07/24 04:35:30;;;;;;;4.50;4.05;;;21.40;65.80;;;;;;5096899;28;20036;-72
2021/07/24 04:37:56;;;;;;;5.57;4.00;;;21.40;65.80;;;;;;5097035;28;20039;-72
2021/07/24 04:40:22;;;;;;;4.97;3.85;;;21.40;65.80;;;;;;5097707;28;20040;-72
2021/07/24 04:42:48;;;;;;;5.07;3.35;;;21.30;65.80;;;;;;5097331;28;20035;-72
2021/07/24 04:45:15;;;;;;;4.40;3.40;;;21.40;65.90;;;;;;5096693;28;20040;-72
2021/07/24 04:47:40;;;;;;;3.80;3.40;;;21.40;65.90;;;;;;5096901;28;20056;-72
2021/07/24 04:50:07;;;;;;;5.13;3.70;;;21.40;65.80;;;;;;5097131;28;20040;-72
2021/07/24 04:52:36;;;;;;;4.57;3.67;;;21.30;65.80;;;;;;5097418;28;20435;-72
2021/07/24 04:55:02;;;;;;;4.93;3.97;;;21.30;65.80;;;;;;5096748;28;20090;-72
2021/07/24 04:57:30;;;;;;;4.28;3.67;;;21.40;65.90;;;;;;5096491;28;20076;-72
2021/07/24 04:59:57;;;;;;;4.45;3.60;;;21.30;65.80;;;;;;5096840;28;20044;-73
2021/07/24 05:02:24;;;;;;;5.13;3.58;;;21.30;65.90;;;;;;5096712;28;20140;-72
2021/07/24 05:04:53;;;;;;;4.05;3.53;;;21.30;65.90;;;;;;5096442;28;20438;-72
2021/07/24 05:07:19;;;;;;;4.03;3.47;;;21.30;65.90;;;;;;5096689;28;20078;-72
2021/07/24 05:09:46;;;;;;;4.22;3.50;;;21.30;65.90;;;;;;5096612;28;20044;-72
2021/07/24 05:12:12;;;;;;;4.35;3.55;;;21.30;65.90;;;;;;5096311;28;20040;-72
2021/07/24 05:14:40;;;;;;;4.13;3.63;;;21.30;65.90;;;;;;5096390;28;20040;-72
2021/07/24 05:17:08;;;;;;;4.72;3.45;;;21.30;65.90;;;;;;5096602;28;20363;-72
2021/07/24 05:19:46;;;;;;;4.68;3.58;;;21.30;65.90;;;;;;5096390;28;20036;-72
2021/07/24 05:22:13;;;;;;;4.40;3.60;;;21.30;65.90;;;;;;5096148;28;20134;-72
2021/07/24 05:24:43;;;;;;;4.63;3.50;;;21.30;66.00;;;;;;5096828;28;20118;-72
2021/07/24 05:27:13;;;;;;;4.78;3.53;;;21.30;66.00;;;;;;5095676;28;20044;-72
2021/07/24 05:29:40;;;;;;;5.38;3.95;;;21.30;66.00;;;;;;5096445;28;20036;-72
2021/07/24 05:32:06;;;;;;;5.20;4.43;;;21.30;66.00;;;;;;5096272;28;20119;-72
2021/07/24 05:34:32;;;;;;;5.60;3.85;;;21.30;66.00;;;;;;5095846;28;20055;-72
2021/07/24 05:36:58;;;;;;;4.20;3.53;;;21.30;66.00;;;;;;5096414;28;20040;-72
2021/07/24 05:39:24;;;;;;;4.32;3.47;;;21.30;66.00;;;;;;5096418;28;20119;-72
2021/07/24 05:41:49;;;;;;;4.82;3.05;;;21.30;66.00;;;;;;5095774;28;20123;-72
2021/07/24 05:44:17;;;;;;;3.92;3.13;;;21.30;66.00;;;;;;5096423;28;20153;-72
2021/07/24 05:46:47;;;;;;;3.85;3.28;;;21.30;66.00;;;;;;5095462;28;20451;-72
2021/07/24 05:49:13;;;;;;;3.40;3.10;;;21.30;66.00;;;;;;5096281;28;20078;-72
2021/07/24 05:51:39;;;;;;;4.90;3.50;;;21.30;66.00;;;;;;5095819;28;20040;-72
2021/07/24 05:54:09;;;;;;;3.95;3.22;;;21.30;66.00;;;;;;5095591;28;20039;-72
2021/07/24 05:56:35;;;;;;;3.75;3.10;;;21.30;66.00;;;;;;5094922;28;20063;-72
2021/07/24 05:59:01;;;;;;;4.88;3.42;;;21.30;66.00;;;;;;5095596;28;20047;-72
2021/07/24 06:01:33;;;;;;;4.00;3.22;;;21.30;66.00;;;;;;5095646;28;20043;-72
2021/07/24 06:03:59;;;;;;;4.05;3.65;;;21.30;66.00;;;;;;5095397;28;20051;-72
2021/07/24 06:06:25;;;;;;;3.65;3.10;;;21.30;66.10;;;;;;5095328;28;20056;-72
2021/07/24 06:08:50;;;;;;;3.25;2.92;;;21.30;66.10;;;;;;5096020;28;20036;-72
2021/07/24 06:11:16;;;;;;;4.47;3.50;;;21.30;66.00;;;;;;5095204;28;20055;-72
2021/07/24 06:13:42;;;;;;;3.47;2.90;;;21.30;66.00;;;;;;5095500;28;20481;-72
2021/07/24 06:16:09;;;;;;;4.18;3.53;;;21.30;66.00;;;;;;5095332;28;20465;-72
2021/07/24 06:18:36;;;;;;;3.80;2.80;;;21.30;66.60;;;;;;5095373;28;20040;-72
2021/07/24 06:21:02;;;;;;;3.70;2.90;;;21.30;66.00;;;;;;5095826;28;20312;-72
2021/07/24 06:23:28;;;;;;;4.28;3.53;;;21.40;66.00;;;;;;5095048;28;20043;-72
2021/07/24 06:25:54;;;;;;;3.83;3.42;;;21.30;66.00;;;;;;5095395;28;20346;-72
2021/07/24 06:28:21;;;;;;;3.65;3.10;;;21.40;66.00;;;;;;5095796;28;20124;-72
2021/07/24 06:30:47;;;;;;;3.63;3.13;;;21.40;66.00;;;;;;5095093;28;20068;-72
2021/07/24 06:33:13;;;;;;;3.70;3.00;;;21.40;66.10;;;;;;5095422;28;20103;-72
2021/07/24 06:35:39;;;;;;;4.28;3.03;;;21.40;66.10;;;;;;5095022;28;20082;-72
2021/07/24 06:38:05;;;;;;;3.58;3.17;;;21.40;66.10;;;;;;5095060;28;20351;-72
2021/07/24 06:40:31;;;;;;;3.22;2.92;;;21.40;66.10;;;;;;5094729;28;20040;-72
2021/07/24 06:43:00;;;;;;;3.53;3.00;;;21.40;66.10;;;;;;5095022;28;20127;-72
2021/07/24 06:45:26;;;;;;;3.67;3.35;;;21.40;66.10;;;;;;5095070;28;20126;-72
2021/07/24 06:47:52;;;;;;;4.25;3.00;;;21.40;66.10;;;;;;5095033;28;20040;-72
2021/07/24 06:50:23;;;;;;;4.53;3.30;;;21.40;66.20;;;;;;5095598;28;20040;-72
2021/07/24 06:52:50;;;;;;;3.50;2.85;;;21.50;66.20;;;;;;5094911;28;20485;-72
2021/07/24 06:55:15;;;;;;;3.28;2.78;;;21.50;66.20;;;;;;5095597;28;20074;-72
2021/07/24 06:57:41;;;;;;;3.10;2.80;;;21.50;66.20;;;;;;5094602;28;20412;-72
2021/07/24 07:00:09;;;;;;;4.40;3.40;;;21.50;66.20;;;;;;5094946;28;20468;-72
2021/07/24 07:02:35;;;;;;;4.13;3.13;;;21.50;66.20;;;;;;5094863;28;20417;-72
2021/07/24 07:05:00;;;;;;;3.05;2.75;;;21.50;66.20;;;;;;5094902;28;20151;-72
2021/07/24 07:07:26;;;;;;;3.95;3.30;;;21.50;66.20;;;;;;5095179;28;20044;-72
2021/07/24 07:09:52;;;;;;;3.50;3.20;;;21.60;66.20;;;;;;5095266;28;20054;-72
2021/07/24 07:12:18;;;;;;;4.53;3.20;;;21.60;66.20;;;;;;5094446;28;20067;-72
2021/07/24 07:14:44;;;;;;;3.60;3.25;;;21.60;66.20;;;;;;5095255;28;20044;-72
2021/07/24 07:17:09;;;;;;;3.90;2.97;;;21.60;66.20;;;;;;5095322;28;20036;-72
2021/07/24 07:19:36;;;;;;;3.13;2.78;;;21.60;66.10;;;;;;5094640;28;20249;-72
2021/07/24 07:22:06;;;;;;;3.20;2.90;;;21.70;66.20;;;;;;5094215;28;20379;-72
2021/07/24 07:24:31;;;;;;;4.45;3.30;;;21.70;66.20;;;;;;5094727;28;20123;-72
2021/07/24 07:26:58;;;;;;;3.38;2.83;;;21.70;66.20;;;;;;5094868;28;20067;-72
2021/07/24 07:29:24;;;;;;;3.60;3.00;;;21.70;66.20;;;;;;5094824;28;20036;-72
2021/07/24 07:31:50;;;;;;;3.90;3.05;;;21.70;66.20;;;;;;5094560;28;20093;-72
2021/07/24 07:34:17;;;;;;;3.78;2.95;;;21.70;66.10;;;;;;5095179;28;20438;-72
2021/07/24 07:36:42;;;;;;;3.80;3.35;;;21.80;66.20;;;;;;5094453;28;20040;-72
2021/07/24 07:39:08;;;;;;;3.83;3.10;;;21.70;66.10;;;;;;5094685;28;20075;-72
2021/07/24 07:41:34;;;;;;;5.05;3.22;;;21.80;66.10;;;;;;5094423;28;20056;-72
2021/07/24 07:44:00;;;;;;;3.15;2.65;;;21.80;66.20;;;;;;5094708;28;20431;-72
2021/07/24 07:46:25;;;;;;;3.58;3.20;;;21.80;66.20;;;;;;5094585;28;20435;-72
2021/07/24 07:48:51;;;;;;;3.17;2.88;;;21.80;66.10;;;;;;5094257;28;20164;-72
2021/07/24 07:51:17;;;;;;;4.30;3.50;;;21.80;66.10;;;;;;5095419;28;20435;-73
2021/07/24 07:53:43;;;;;;;3.53;2.72;;;21.80;66.10;;;;;;5098377;28;20040;-72
2021/07/24 07:56:11;;;;;;;3.30;2.97;;;21.90;66.80;;;;;;5097932;28;20044;-72
2021/07/24 07:58:38;;;;;;;3.15;2.85;;;21.90;66.20;;;;;;5097935;28;20116;-72
2021/07/24 08:01:12;;;;;;;3.97;2.88;;;21.80;66.10;;;;;;5097774;28;20387;-72
2021/07/24 08:03:39;;;;;;;3.63;2.95;;;21.90;66.10;;;;;;5097560;28;20040;-72
2021/07/24 08:06:05;;;;;;;4.22;3.28;;;21.90;66.20;;;;;;5098243;28;20052;-72
2021/07/24 08:08:31;;;;;;;3.20;2.85;;;21.90;66.20;;;;;;5098380;28;20089;-72
2021/07/24 08:10:57;;;;;;;3.60;3.05;;;21.90;66.10;;;;;;5098410;28;20070;-72
2021/07/24 08:13:25;;;;;;;3.83;3.00;;;21.90;66.10;;;;;;5097819;28;20044;-72
2021/07/24 08:15:51;;;;;;;3.58;3.00;;;21.90;66.10;;;;;;5098223;28;20055;-72
2021/07/24 08:18:16;;;;;;;3.40;3.08;;;22.00;66.10;;;;;;5098120;28;20040;-72
2021/07/24 08:20:44;;;;;;;3.28;2.88;;;22.00;66.20;;;;;;5097506;28;20496;-72
2021/07/24 08:23:13;;;;;;;3.85;3.33;;;22.00;66.20;;;;;;5097774;28;20431;-72
2021/07/24 08:25:40;;;;;;;3.65;3.33;;;22.00;66.20;;;;;;5097397;28;20043;-72
2021/07/24 08:28:06;;;;;;;4.57;4.03;;;22.00;66.10;;;;;;5097348;28;20040;-72
2021/07/24 08:30:33;;;;;;;4.45;3.53;;;22.00;66.20;;;;;;5097871;28;20432;-72
2021/07/24 08:32:59;;;;;;;3.00;2.70;;;22.00;66.10;;;;;;5096989;28;20080;-73
2021/07/24 08:35:26;;;;;;;3.35;3.05;;;22.00;66.10;;;;;;5097572;28;20113;-72
2021/07/24 08:37:52;;;;;;;3.58;2.78;;;22.00;66.10;;;;;;5097251;28;20063;-72
2021/07/24 08:40:18;;;;;;;4.18;3.35;;;22.00;66.10;;;;;;5097098;28;20071;-72
2021/07/24 08:42:44;;;;;;;3.67;3.17;;;22.10;66.20;;;;;;5096999;28;20063;-73
2021/07/24 08:45:16;;;;;;;3.85;3.30;;;22.00;66.10;;;;;;5097159;28;20433;-72
2021/07/24 08:47:42;;;;;;;3.80;3.35;;;22.10;66.10;;;;;;5097222;28;20054;-72
2021/07/24 08:50:09;;;;;;;3.28;2.80;;;22.10;66.10;;;;;;5097144;28;20435;-72
2021/07/24 08:52:36;;;;;;;3.88;2.83;;;22.10;66.10;;;;;;5097546;28;20044;-72
2021/07/24 08:55:04;;;;;;;3.60;3.30;;;22.10;66.10;;;;;;5096859;28;20417;-72
2021/07/24 08:57:35;;;;;;;3.05;2.75;;;22.10;66.10;;;;;;5096689;28;20117;-72
2021/07/24 09:00:21;;;;;;;3.72;3.20;;;22.10;66.10;;;;;;5097043;28;20115;-72
2021/07/24 09:02:48;;;;;;;3.53;3.20;;;22.10;66.10;;;;;;5095694;28;20071;-72
2021/07/24 09:05:16;;;;;;;4.35;3.08;;;22.10;66.10;;;;;;5097076;28;20043;-72
2021/07/24 09:07:50;;;;;;;2.72;2.50;;;22.10;66.10;;;;;;5096685;28;20366;-72
2021/07/24 09:10:18;;;;;;;3.00;2.65;;;22.10;66.10;;;;;;5096457;28;20040;-72
2021/07/24 09:12:46;;;;;;;3.13;2.83;;;22.20;66.20;;;;;;5096491;28;20122;-72
2021/07/24 09:15:17;;;;;;;3.25;2.90;;;22.20;66.20;;;;;;5096984;28;20089;-72
2021/07/24 09:17:43;;;;;;;3.20;2.90;;;22.20;66.20;;;;;;5096449;28;20040;-72
2021/07/24 09:20:10;;;;;;;2.65;2.45;;;22.10;66.10;;;;;;5096470;28;20064;-72
2021/07/24 09:22:38;;;;;;;3.55;2.70;;;22.10;66.20;;;;;;5096936;28;20070;-72
2021/07/24 09:25:17;;;;;;;3.65;3.10;;;22.20;66.20;;;;;;5096083;28;20036;-73
2021/07/24 09:27:52;;;;;;;3.65;3.17;;;22.20;66.80;;;;;;5096686;28;20060;-73
2021/07/24 09:30:32;;;;;;;3.85;3.42;;;22.20;66.20;;;;;;5096139;28;20044;-72
2021/07/24 09:33:06;;;;;;;2.97;2.55;;;22.20;66.20;;;;;;5096225;28;20036;-72
2021/07/24 09:35:49;;;;;;;3.80;2.85;;;22.20;66.10;;;;;;5096063;28;20411;-72
2021/07/24 09:38:32;;;;;;;3.15;2.85;;;22.20;66.10;;;;;;5096316;28;20518;-72
2021/07/24 09:41:03;;;;;;;3.10;2.80;;;22.20;66.10;;;;;;5096176;28;20047;-72
2021/07/24 09:43:40;;;;;;;3.42;3.13;;;22.20;66.10;;;;;;5096630;28;20048;-72
2021/07/24 09:46:20;;;;;;;2.78;2.58;;;22.20;66.10;;;;;;5095873;28;20066;-72
2021/07/24 09:48:52;;;;;;;2.85;2.42;;;22.20;66.10;;;;;;5095945;28;20102;-72
2021/07/24 09:51:37;;;;;;;3.30;2.97;;;22.20;66.10;;;;;;5095843;28;20066;-72
2021/07/24 09:54:05;;;;;;;3.72;2.97;;;22.30;66.10;;;;;;5095894;28;20047;-72
2021/07/24 09:56:41;;;;;;;3.63;2.90;;;22.30;66.20;;;;;;5095475;28;20382;-73
2021/07/24 09:59:24;;;;;;;3.10;2.80;;;22.30;66.20;;;;;;5096095;28;20036;-72
2021/07/24 10:02:01;;;;;;;3.30;2.97;;;22.30;66.10;;;;;;5095572;28;20067;-72
2021/07/24 10:04:30;;;;;;;3.30;2.75;;;22.30;66.10;;;;;;5095681;28;20036;-72
2021/07/24 10:06:59;;;;;;;3.40;3.10;;;22.30;66.20;;;;;;5095228;28;20039;-73
2021/07/24 10:09:30;;;;;;;3.40;3.10;;;22.30;66.10;;;;;;5096193;28;20166;-72
2021/07/24 10:11:57;;;;;;;3.38;2.50;;;22.30;66.10;;;;;;5095581;28;20126;-72
2021/07/24 10:14:23;;;;;;;3.70;2.95;;;22.30;66.20;;;;;;5095231;28;20075;-72
2021/07/24 10:16:51;;;;;;;3.90;3.15;;;22.30;66.10;;;;;;5095148;28;20137;-72
2021/07/24 10:19:23;;;;;;;3.40;3.10;;;22.30;66.10;;;;;;5095030;28;20111;-73
2021/07/24 10:21:50;;;;;;;4.38;3.40;;;22.30;66.10;;;;;;5095274;28;20043;-72
2021/07/24 10:24:16;;;;;;;3.50;2.92;;;22.30;66.10;;;;;;5095292;28;20085;-72
2021/07/24 10:26:56;;;;;;;4.32;2.92;;;22.30;66.10;;;;;;5095526;28;20067;-72
2021/07/24 10:29:46;;;;;;;3.50;3.08;;;22.30;66.60;;;;;;5094956;28;20161;-72
2021/07/24 10:32:15;;;;;;;3.47;2.80;;;22.40;66.10;;;;;;5080972;28;20144;-72
2021/07/24 10:34:49;;;;;;;4.00;2.70;;;22.40;66.10;;;;;;5095574;28;20446;-72
2021/07/24 10:37:33;;;;;;;3.58;3.05;;;22.40;66.00;;;;;;5095744;28;20115;-72
2021/07/24 10:40:17;;;;;;;3.05;2.72;;;22.40;66.00;;;;;;5094773;28;20039;-72
2021/07/24 10:42:53;;;;;;;3.38;2.90;;;22.40;66.00;;;;;;5095119;28;20036;-72
2021/07/24 10:45:31;;;;;;;3.17;2.88;;;22.40;66.10;;;;;;5095034;28;20051;-72
2021/07/24 10:48:15;;;;;;;3.30;3.00;;;22.40;66.00;;;;;;5095368;28;20089;-72
2021/07/24 10:50:53;;;;;;;3.13;2.80;;;22.40;66.00;;;;;;5094483;28;20474;-72
2021/07/24 10:53:21;;;;;;;3.35;2.90;;;22.40;66.00;;;;;;5095020;28;20051;-73
2021/07/24 10:55:49;;;;;;;3.15;2.85;;;22.40;66.10;;;;;;5095293;28;20044;-73
2021/07/24 10:58:16;;;;;;;3.38;2.92;;;22.40;66.10;;;;;;5094913;28;20052;-72
2021/07/24 11:00:52;;;;;;;3.05;2.75;;;22.40;66.10;;;;;;5094801;28;20062;-72
2021/07/24 11:03:39;;;;;;;3.00;2.67;;;22.40;66.10;;;;;;5095198;28;20036;-73
2021/07/24 11:06:21;;;;;;;3.45;2.88;;;22.40;66.10;;;;;;5095130;28;20040;-73
2021/07/24 11:09:06;;;;;;;3.25;2.95;;;22.40;66.10;;;;;;5095093;28;20119;-72
2021/07/24 11:11:40;;;;;;;3.22;2.92;;;22.50;66.10;;;;;;5094741;28;20044;-72
2021/07/24 11:14:06;;;;;;;3.63;3.22;;;22.40;66.10;;;;;;5094671;28;20061;-72
2021/07/24 11:17:14;;;;;;;3.45;3.10;;;22.40;66.10;;;;;;5094795;28;20510;-72
2021/07/24 11:19:52;;;;;;;3.10;2.80;;;22.50;66.10;;;;;;5046357;28;20052;-72
2021/07/24 11:22:19;;;;;;;4.03;3.03;;;22.50;66.20;;;;;;5094512;28;20040;-72
2021/07/24 11:24:51;;;;;;;3.35;3.05;;;22.40;66.10;;;;;;5095174;28;20044;-72
2021/07/24 11:27:26;;;;;;;3.22;2.92;;;22.50;66.10;;;;;;5098237;28;20044;-72
2021/07/24 11:30:08;;;;;;;3.58;2.83;;;22.50;66.20;;;;;;5098681;28;20100;-72
2021/07/24 11:32:43;;;;;;;3.33;2.95;;;22.50;66.10;;;;;;5098569;28;20044;-72
2021/07/24 11:35:13;;;;;;;3.30;2.50;;;22.50;66.20;;;;;;5099058;28;20115;-72
2021/07/24 11:37:46;;;;;;;3.35;3.00;;;22.50;66.20;;;;;;5098463;28;20122;-72
2021/07/24 11:40:14;;;;;;;3.47;2.88;;;22.50;66.20;;;;;;5098107;28;20458;-72
2021/07/24 11:42:41;;;;;;;3.30;3.00;;;22.50;66.20;;;;;;5098304;28;20040;-73
2021/07/24 11:45:07;;;;;;;3.20;2.90;;;22.50;66.20;;;;;;5098250;28;20047;-73
2021/07/24 11:47:33;;;;;;;3.70;3.40;;;22.50;66.20;;;;;;5099053;28;20051;-72
2021/07/24 11:50:19;;;;;;;3.53;3.13;;;22.50;66.20;;;;;;5098172;28;20044;-72
2021/07/24 11:52:51;;;;;;;3.80;2.85;;;22.50;66.10;;;;;;5098093;28;20067;-72
2021/07/24 11:55:27;;;;;;;3.08;2.78;;;22.50;66.20;;;;;;5098047;28;20435;-72
2021/07/24 11:58:05;;;;;;;3.50;3.20;;;22.50;66.20;;;;;;5097839;28;20056;-72
2021/07/24 12:00:31;;;;;;;4.38;2.95;;;22.60;66.30;;;;;;5098428;28;20060;-72
2021/07/24 12:03:21;;;;;;;3.40;3.10;;;22.60;66.30;;;;;;5098045;28;20047;-72
2021/07/24 12:05:57;;;;;;;4.82;3.17;;;22.60;66.30;;;;;;5097829;28;20032;-72
2021/07/24 12:08:29;;;;;;;3.28;2.90;;;22.60;66.30;;;;;;5098262;28;20040;-72
2021/07/24 12:10:56;;;;;;;3.28;2.97;;;22.50;66.30;;;;;;5098182;28;20489;-72
2021/07/24 12:13:27;;;;;;;3.42;3.13;;;22.60;66.30;;;;;;5097981;28;20044;-72
2021/07/24 12:16:06;;;;;;;4.88;3.55;;;22.60;66.40;;;;;;5097647;28;20051;-72
2021/07/24 12:18:53;;;;;;;3.85;2.97;;;22.60;66.30;;;;;;5097652;28;20101;-73
2021/07/24 12:21:32;;;;;;;2.97;2.58;;;22.60;66.30;;;;;;5097731;28;20063;-72
2021/07/24 12:24:03;;;;;;;3.88;3.20;;;22.60;66.40;;;;;;5097523;28;20109;-73
2021/07/24 12:26:36;;;;;;;4.07;3.13;;;22.60;66.30;;;;;;5097521;28;20048;-73
2021/07/24 12:29:23;;;;;;;3.15;2.85;;;22.60;66.40;;;;;;5097302;28;20396;-73
2021/07/24 12:31:53;;;;;;;3.80;3.10;;;22.60;66.30;;;;;;5097591;28;20104;-72
2021/07/24 12:34:21;;;;;;;3.22;2.70;;;22.60;66.40;;;;;;5097556;28;20077;-73
2021/07/24 12:36:53;;;;;;;4.57;3.15;;;22.60;66.40;;;;;;5097878;28;20032;-73
2021/07/24 12:39:21;;;;;;;3.77;3.27;;;22.60;66.40;;;;;;5097226;28;20119;-72
2021/07/24 12:42:06;;;;;;;3.83;3.42;;;22.60;66.40;;;;;;5096974;28;20365;-73
2021/07/24 12:44:51;;;;;;;3.90;3.20;;;22.70;66.40;;;;;;5097061;28;20047;-72
2021/07/24 12:47:19;;;;;;;4.30;3.53;;;22.60;66.40;;;;;;5097093;28;20047;-73
2021/07/24 12:49:47;;;;;;;3.38;3.08;;;22.60;66.40;;;;;;5097592;28;20051;-73
2021/07/24 12:52:34;;;;;;;4.18;3.38;;;22.70;66.50;;;;;;5096828;28;20040;-72
2021/07/24 12:55:07;;;;;;;3.78;3.47;;;22.70;66.50;;;;;;5096768;28;20036;-72
2021/07/24 12:57:34;;;;;;;3.42;3.13;;;22.70;66.50;;;;;;5096950;28;20059;-72
2021/07/24 13:00:01;;;;;;;4.18;3.20;;;22.70;66.60;;;;;;5096791;28;20336;-72